createdAt,value
2018-11-14T00:02:18.667Z,3.50
2018-11-14T00:04:45.854Z,3.27
2018-11-14T00:07:13.028Z,2.97
2018-11-14T00:09:40.316Z,2.57
2018-11-14T00:12:07.478Z,3.33
2018-11-14T00:14:34.691Z,3.43
2018-11-14T00:17:01.847Z,3.27
2018-11-14T00:19:29.053Z,3.07
2018-11-14T00:21:56.225Z,3.10
2018-11-14T00:24:23.416Z,2.77
2018-11-14T00:26:50.757Z,3.23
2018-11-14T00:29:17.845Z,3.13
2018-11-14T00:31:44.974Z,3.47
2018-11-14T00:34:12.166Z,3.03
2018-11-14T00:36:39.340Z,3.10
2018-11-14T00:39:07.461Z,3.20
2018-11-14T00:41:34.654Z,3.50
2018-11-14T00:44:01.846Z,3.37
2018-11-14T00:46:29.014Z,3.23
2018-11-14T00:48:56.202Z,2.90
2018-11-14T00:51:23.371Z,3.20
2018-11-14T00:53:50.546Z,2.83
2018-11-14T00:56:17.735Z,3.23
2018-11-14T00:58:44.899Z,3.20
2018-11-14T01:01:12.102Z,2.90
2018-11-14T01:03:39.328Z,3.50
2018-11-14T01:06:06.511Z,3.10
2018-11-14T01:08:34.471Z,4.00
2018-11-14T01:11:01.642Z,3.20
2018-11-14T01:13:28.823Z,3.67
2018-11-14T01:15:56.028Z,3.40
2018-11-14T01:18:23.190Z,3.40
2018-11-14T01:20:50.419Z,3.20
2018-11-14T01:23:17.554Z,3.70
2018-11-14T01:25:44.723Z,3.43
2018-11-14T01:28:12.298Z,4.37
2018-11-14T01:30:39.512Z,3.30
2018-11-14T01:33:06.690Z,3.23
2018-11-14T01:35:33.885Z,3.03
2018-11-14T01:38:01.094Z,3.10
2018-11-14T01:40:28.254Z,3.10
2018-11-14T01:42:56.549Z,3.20
2018-11-14T01:45:23.744Z,3.53
2018-11-14T01:47:50.981Z,3.53
2018-11-14T01:50:18.301Z,3.57
2018-11-14T01:52:45.588Z,3.20
2018-11-14T01:55:15.011Z,2.93
2018-11-14T01:57:42.185Z,3.17
2018-11-14T02:00:11.056Z,2.87
2018-11-14T02:02:38.265Z,3.00
2018-11-14T02:05:06.206Z,3.23
2018-11-14T02:07:33.401Z,3.30
2018-11-14T02:10:00.558Z,3.23
2018-11-14T02:12:27.743Z,2.83
2018-11-14T02:14:54.910Z,3.10
2018-11-14T02:17:22.086Z,3.20
2018-11-14T02:19:49.270Z,2.90
2018-11-14T02:22:16.466Z,3.13
2018-11-14T02:24:43.636Z,3.03
2018-11-14T02:27:10.971Z,3.30
2018-11-14T02:29:38.183Z,3.23
2018-11-14T02:32:05.511Z,3.27
2018-11-14T02:34:32.755Z,3.17
2018-11-14T02:36:59.916Z,3.23
2018-11-14T02:39:27.095Z,2.77
2018-11-14T02:41:54.261Z,2.97
2018-11-14T02:44:21.455Z,3.30
2018-11-14T02:46:48.679Z,3.10
2018-11-14T02:49:15.870Z,2.67
2018-11-14T02:51:43.050Z,3.00
2018-11-14T02:54:10.280Z,3.10
2018-11-14T02:56:37.477Z,2.70
2018-11-14T02:59:04.967Z,2.80
2018-11-14T03:01:32.130Z,3.20
2018-11-14T03:03:59.941Z,2.97
2018-11-14T03:06:27.097Z,3.07
2018-11-14T03:08:54.263Z,3.07
2018-11-14T03:11:21.446Z,2.80
2018-11-14T03:13:48.612Z,3.03
2018-11-14T03:16:15.806Z,3.00
2018-11-14T03:18:42.961Z,3.37
2018-11-14T03:21:10.155Z,3.33
2018-11-14T03:23:37.315Z,3.23
2018-11-14T03:26:04.567Z,2.90
2018-11-14T03:28:31.763Z,2.97
2018-11-14T03:30:58.922Z,3.20
2018-11-14T03:33:26.102Z,3.70
2018-11-14T03:35:58.751Z,2.90
2018-11-14T03:38:25.946Z,3.10
2018-11-14T03:40:53.120Z,2.70
2018-11-14T03:43:20.291Z,2.93
2018-11-14T03:45:47.470Z,2.90
2018-11-14T03:48:14.644Z,2.70
2018-11-14T03:50:41.804Z,3.10
2018-11-14T03:53:08.973Z,2.70
2018-11-14T03:55:36.151Z,3.17
2018-11-14T03:58:03.541Z,2.80
2018-11-14T04:00:30.650Z,2.77
2018-11-14T04:02:57.935Z,2.50
2018-11-14T04:05:25.208Z,3.10
2018-11-14T04:07:52.352Z,2.97
2018-11-14T04:10:19.525Z,2.80
2018-11-14T04:12:46.670Z,2.63
2018-11-14T04:15:14.672Z,3.03
2018-11-14T04:17:41.870Z,2.80
2018-11-14T04:20:10.349Z,3.10
2018-11-14T04:22:37.549Z,3.33
2018-11-14T04:25:04.919Z,3.30
2018-11-14T04:27:32.082Z,3.00
2018-11-14T04:29:59.266Z,3.17
2018-11-14T04:32:26.495Z,2.90
2018-11-14T04:34:53.687Z,2.77
2018-11-14T04:37:20.883Z,3.00
2018-11-14T04:39:48.058Z,3.20
2018-11-14T04:42:15.217Z,2.70
2018-11-14T04:44:42.442Z,2.90
2018-11-14T04:47:09.625Z,3.37
2018-11-14T04:49:36.790Z,2.90
2018-11-14T04:52:03.975Z,3.47
2018-11-14T04:54:31.140Z,3.40
2018-11-14T04:56:58.329Z,3.27
2018-11-14T04:59:25.522Z,2.83
2018-11-14T05:01:52.690Z,3.00
2018-11-14T05:04:19.890Z,3.10
2018-11-14T05:06:47.061Z,2.97
2018-11-14T05:09:14.239Z,2.80
2018-11-14T05:11:41.863Z,4.07
2018-11-14T05:14:09.563Z,2.73
2018-11-14T05:16:36.762Z,3.40
2018-11-14T05:19:03.940Z,3.30
2018-11-14T05:21:31.193Z,3.53
2018-11-14T05:23:58.412Z,3.30
2018-11-14T05:26:25.587Z,3.37
2018-11-14T05:28:52.770Z,2.93
2018-11-14T05:31:20.005Z,3.60
2018-11-14T05:33:47.165Z,3.20
2018-11-14T05:36:14.321Z,3.37
2018-11-14T05:38:41.520Z,3.60
2018-11-14T05:41:08.687Z,3.60
2018-11-14T05:43:35.861Z,3.60
2018-11-14T05:46:03.090Z,3.90
2018-11-14T05:48:30.239Z,4.40
2018-11-14T05:50:57.439Z,3.30
2018-11-14T05:53:24.620Z,3.60
2018-11-14T05:55:51.847Z,3.40
2018-11-14T05:58:19.054Z,3.17
2018-11-14T06:00:46.230Z,4.00
2018-11-14T06:03:13.410Z,3.50
2018-11-14T06:05:40.582Z,3.80
2018-11-14T06:08:07.767Z,3.40
2018-11-14T06:10:34.938Z,3.50
2018-11-14T06:13:02.127Z,3.87
2018-11-14T06:15:29.360Z,3.90
2018-11-14T06:17:56.932Z,4.27
2018-11-14T06:20:24.130Z,3.63
2018-11-14T06:22:51.895Z,4.40
2018-11-14T06:25:22.049Z,3.97
2018-11-14T06:27:50.007Z,3.97
2018-11-14T06:30:17.196Z,4.00
2018-11-14T06:32:44.354Z,4.00
2018-11-14T06:35:11.512Z,3.70
2018-11-14T06:37:38.676Z,3.70
2018-11-14T06:40:06.436Z,3.93
2018-11-14T06:42:33.650Z,4.37
2018-11-14T06:45:00.829Z,4.27
2018-11-14T06:47:28.032Z,4.23
2018-11-14T06:49:55.285Z,4.77
2018-11-14T06:52:22.555Z,4.40
2018-11-14T06:54:49.764Z,4.67
2018-11-14T06:57:16.927Z,4.87
2018-11-14T06:59:44.164Z,4.90
2018-11-14T07:02:11.355Z,4.40
2018-11-14T07:04:38.537Z,5.00
2018-11-14T07:07:05.863Z,4.83
2018-11-14T07:09:33.040Z,5.00
2018-11-14T07:12:00.211Z,5.30
2018-11-14T07:14:27.364Z,4.50
2018-11-14T07:16:54.572Z,5.03
2018-11-14T07:19:21.772Z,4.83
2018-11-14T07:21:48.947Z,4.63
2018-11-14T07:24:16.155Z,5.00
2018-11-14T07:26:43.298Z,4.70
2018-11-14T07:29:10.517Z,5.07
2018-11-14T07:31:37.679Z,5.63
2018-11-14T07:34:05.004Z,5.00
2018-11-14T07:36:32.202Z,5.50
2018-11-14T07:39:00.963Z,5.50
2018-11-14T07:41:30.878Z,6.03
2018-11-14T07:43:58.050Z,5.70
2018-11-14T07:46:26.362Z,5.97
2018-11-14T07:48:53.534Z,5.90
2018-11-14T07:51:20.884Z,6.13
2018-11-14T07:53:47.982Z,6.27
2018-11-14T07:56:15.154Z,5.77
2018-11-14T07:58:42.356Z,6.70
2018-11-14T08:01:16.090Z,5.97
2018-11-14T08:03:43.386Z,6.23
2018-11-14T08:06:10.608Z,6.47
2018-11-14T08:08:37.834Z,5.90
2018-11-14T08:11:05.373Z,6.30
2018-11-14T08:13:33.778Z,6.30
2018-11-14T08:16:01.551Z,6.10
2018-11-14T08:18:28.762Z,6.20
2018-11-14T08:20:56.483Z,6.83
2018-11-14T08:23:23.674Z,7.20
2018-11-14T08:25:50.903Z,6.67
2018-11-14T08:28:18.071Z,7.40
2018-11-14T08:30:45.656Z,6.70
2018-11-14T08:33:12.735Z,7.00
2018-11-14T08:35:39.931Z,7.40
2018-11-14T08:38:07.133Z,7.00
2018-11-14T08:40:34.311Z,7.57
2018-11-14T08:43:01.570Z,7.67
2018-11-14T08:45:28.779Z,7.13
2018-11-14T08:47:56.019Z,7.90
2018-11-14T08:50:23.240Z,7.57
2018-11-14T08:52:50.366Z,7.83
2018-11-14T08:55:17.573Z,9.50
2018-11-14T08:57:45.814Z,8.17
2018-11-14T09:00:20.423Z,8.03
2018-11-14T09:02:48.016Z,8.37
2018-11-14T09:05:15.207Z,7.30
2018-11-14T09:07:42.393Z,7.97
2018-11-14T09:10:11.585Z,7.87
2018-11-14T09:12:39.240Z,7.80
2018-11-14T09:15:06.943Z,7.97
2018-11-14T09:17:34.058Z,7.80
2018-11-14T09:20:01.228Z,7.77
2018-11-14T09:22:28.410Z,8.27
2018-11-14T09:24:55.752Z,7.30
2018-11-14T09:27:22.882Z,7.50
2018-11-14T09:29:50.100Z,8.10
2018-11-14T09:32:17.307Z,7.80
2018-11-14T09:34:44.537Z,7.20
2018-11-14T09:37:11.649Z,7.13
2018-11-14T09:39:38.863Z,7.50
2018-11-14T09:42:06.058Z,6.90
2018-11-14T09:44:33.569Z,9.20
2018-11-14T09:47:00.725Z,7.40
2018-11-14T09:49:27.981Z,7.80
2018-11-14T09:51:55.109Z,7.90
2018-11-14T09:54:22.438Z,7.17
2018-11-14T09:56:49.634Z,7.53
2018-11-14T09:59:16.825Z,6.90
2018-11-14T10:01:43.990Z,7.43
2018-11-14T10:04:11.178Z,6.27
2018-11-14T10:06:38.371Z,7.07
2018-11-14T10:09:07.495Z,7.27
2018-11-14T10:11:34.666Z,7.00
2018-11-14T10:14:01.948Z,7.80
2018-11-14T10:16:29.133Z,7.70
2018-11-14T10:18:56.304Z,7.50
2018-11-14T10:21:23.618Z,6.87
2018-11-14T10:23:50.673Z,7.43
2018-11-14T10:26:17.877Z,6.43
2018-11-14T10:28:45.528Z,7.20
2018-11-14T10:31:12.694Z,6.40
2018-11-14T10:33:39.862Z,7.03
2018-11-14T10:36:07.062Z,6.67
2018-11-14T10:38:34.281Z,6.70
2018-11-14T10:41:01.527Z,5.87
2018-11-14T10:43:28.713Z,5.90
2018-11-14T10:45:55.866Z,5.83
2018-11-14T10:48:23.019Z,5.70
2018-11-14T10:50:50.258Z,5.37
2018-11-14T10:53:17.358Z,5.80
2018-11-14T10:55:44.506Z,5.40
2018-11-14T10:58:11.693Z,5.17
2018-11-14T11:00:44.299Z,5.50
2018-11-14T11:03:16.626Z,5.80
2018-11-14T11:05:49.329Z,5.07
2018-11-14T11:08:24.260Z,5.30
2018-11-14T11:10:56.709Z,5.07
2018-11-14T11:13:29.218Z,5.60
2018-11-14T11:16:01.738Z,5.20
2018-11-14T11:18:32.961Z,5.13
2018-11-14T11:21:00.227Z,5.57
2018-11-14T11:23:27.483Z,4.33
2018-11-14T11:25:54.631Z,5.40
2018-11-14T11:28:21.883Z,5.10
2018-11-14T11:30:49.095Z,5.40
2018-11-14T11:33:16.328Z,5.23
2018-11-14T11:35:43.492Z,5.27
2018-11-14T11:38:10.717Z,4.67
2018-11-14T11:40:37.866Z,4.90
2018-11-14T11:43:05.638Z,5.00
2018-11-14T11:45:34.671Z,4.10
2018-11-14T11:48:02.072Z,4.90
2018-11-14T11:50:29.465Z,4.30
2018-11-14T11:52:56.636Z,4.67
2018-11-14T11:55:23.834Z,4.70
2018-11-14T11:57:50.986Z,4.70
2018-11-14T12:00:18.290Z,4.47
2018-11-14T12:02:45.338Z,4.57
2018-11-14T12:05:13.596Z,4.23
2018-11-14T12:07:41.335Z,4.57
2018-11-14T12:10:09.106Z,3.97
2018-11-14T12:12:36.306Z,3.57
2018-11-14T12:15:03.732Z,3.60
2018-11-14T12:17:30.906Z,3.70
2018-11-14T12:19:58.220Z,3.50
2018-11-14T12:22:25.419Z,3.40
2018-11-14T12:24:52.594Z,3.90
2018-11-14T12:27:19.796Z,3.70
2018-11-14T12:29:47.961Z,3.47
2018-11-14T12:32:15.144Z,3.30
2018-11-14T12:34:42.395Z,3.60
2018-11-14T12:37:09.611Z,3.50
2018-11-14T12:39:36.813Z,3.07
2018-11-14T12:42:04.028Z,3.20
2018-11-14T12:44:31.193Z,3.03
2018-11-14T12:46:58.377Z,3.33
2018-11-14T12:49:25.601Z,3.10
2018-11-14T12:51:52.826Z,3.30
2018-11-14T12:54:19.991Z,2.90
2018-11-14T12:56:47.227Z,3.30
2018-11-14T12:59:14.438Z,2.90
2018-11-14T13:01:41.578Z,3.30
2018-11-14T13:04:08.782Z,3.10
2018-11-14T13:06:35.958Z,3.13
2018-11-14T13:09:04.496Z,3.60
2018-11-14T13:11:31.655Z,2.70
2018-11-14T13:13:58.841Z,3.63
2018-11-14T13:16:26.007Z,3.57
2018-11-14T13:18:53.167Z,3.50
2018-11-14T13:21:20.344Z,3.10
2018-11-14T13:23:47.524Z,2.93
2018-11-14T13:26:14.701Z,3.30
2018-11-14T13:28:41.949Z,3.40
2018-11-14T13:31:09.103Z,3.43
2018-11-14T13:33:36.261Z,3.60
2018-11-14T13:36:03.456Z,3.13
2018-11-14T13:38:30.647Z,3.50
2018-11-14T13:40:57.839Z,3.40
2018-11-14T13:43:25.004Z,3.73
2018-11-14T13:45:52.190Z,3.70
2018-11-14T13:48:19.364Z,3.80
2018-11-14T13:50:46.787Z,3.40
2018-11-14T13:53:13.781Z,3.40
2018-11-14T13:55:40.946Z,3.30
2018-11-14T13:58:08.119Z,3.10
2018-11-14T14:00:35.303Z,3.20
2018-11-14T14:03:02.477Z,3.80
2018-11-14T14:05:29.647Z,3.80
2018-11-14T14:07:56.865Z,3.27
2018-11-14T14:10:23.981Z,3.50
2018-11-14T14:12:52.224Z,3.20
2018-11-14T14:15:21.605Z,3.67
2018-11-14T14:17:49.226Z,3.80
2018-11-14T14:20:17.086Z,3.33
2018-11-14T14:22:44.289Z,3.53
2018-11-14T14:25:12.731Z,3.70
2018-11-14T14:27:39.912Z,3.60
2018-11-14T14:30:11.334Z,2.80
2018-11-14T14:32:39.283Z,2.90
2018-11-14T14:35:06.858Z,2.60
2018-11-14T14:37:34.018Z,2.43
2018-11-14T14:40:01.227Z,2.10
2018-11-14T14:42:28.440Z,2.40
2018-11-14T14:44:55.598Z,2.50
2018-11-14T14:47:22.814Z,2.30
2018-11-14T14:49:50.002Z,3.03
2018-11-14T14:52:17.239Z,2.47
2018-11-14T14:54:44.403Z,2.60
2018-11-14T14:57:11.563Z,3.20
2018-11-14T14:59:38.738Z,2.30
2018-11-14T15:02:05.901Z,3.17
2018-11-14T15:04:33.096Z,2.70
2018-11-14T15:07:00.261Z,2.77
2018-11-14T15:09:27.482Z,2.43
2018-11-14T15:11:54.629Z,2.50
2018-11-14T15:14:21.807Z,2.57
2018-11-14T15:16:49.027Z,2.63
2018-11-14T15:19:16.236Z,3.00
2018-11-14T15:21:43.394Z,3.20
2018-11-14T15:24:10.599Z,2.90
2018-11-14T15:26:37.757Z,3.30
2018-11-14T15:29:05.219Z,3.30
2018-11-14T15:31:32.400Z,3.83
2018-11-14T15:33:59.563Z,3.90
2018-11-14T15:36:26.723Z,4.07
2018-11-14T15:38:53.902Z,3.50
2018-11-14T15:41:21.063Z,3.90
2018-11-14T15:43:48.314Z,3.60
2018-11-14T15:46:15.499Z,3.63
2018-11-14T15:48:42.678Z,3.40
2018-11-14T15:51:09.853Z,3.60
2018-11-14T15:53:37.026Z,3.97
2018-11-14T15:56:04.223Z,3.23
2018-11-14T15:58:31.393Z,3.10
2018-11-14T16:00:58.571Z,3.30
2018-11-14T16:03:25.743Z,3.60
2018-11-14T16:05:52.926Z,3.33
2018-11-14T16:08:20.144Z,3.60
2018-11-14T16:10:47.323Z,3.70
2018-11-14T16:13:14.491Z,3.87
2018-11-14T16:15:41.668Z,3.33
2018-11-14T16:18:08.856Z,2.90
2018-11-14T16:20:36.051Z,3.30
2018-11-14T16:23:03.178Z,3.80
2018-11-14T16:25:30.356Z,3.50
2018-11-14T16:27:58.725Z,3.73
2018-11-14T16:30:28.134Z,3.50
2018-11-14T16:32:56.563Z,3.90
2018-11-14T16:35:23.734Z,4.20
2018-11-14T16:37:50.913Z,3.47
2018-11-14T16:40:19.468Z,4.03
2018-11-14T16:42:46.962Z,3.80
2018-11-14T16:45:14.590Z,3.53
2018-11-14T16:47:41.930Z,3.43
2018-11-14T16:50:09.902Z,3.50
2018-11-14T16:52:37.062Z,3.40
2018-11-14T16:55:04.551Z,3.30
2018-11-14T16:57:31.699Z,3.70
2018-11-14T16:59:58.902Z,3.83
2018-11-14T17:02:26.084Z,3.70
2018-11-14T17:04:53.290Z,4.17
2018-11-14T17:07:20.602Z,4.07
2018-11-14T17:09:47.787Z,4.00
2018-11-14T17:12:14.952Z,3.80
2018-11-14T17:14:42.122Z,4.07
2018-11-14T17:17:09.296Z,3.77
2018-11-14T17:19:36.470Z,4.03
2018-11-14T17:22:03.642Z,4.60
2018-11-14T17:24:30.932Z,4.40
2018-11-14T17:26:58.093Z,4.97
2018-11-14T17:29:25.370Z,5.73
2018-11-14T17:31:52.551Z,5.77
2018-11-14T17:34:19.723Z,5.50
2018-11-14T17:36:46.903Z,4.50
2018-11-14T17:39:14.324Z,4.10
2018-11-14T17:41:41.939Z,4.27
2018-11-14T17:44:09.038Z,3.90
2018-11-14T17:46:36.202Z,3.80
2018-11-14T17:49:03.414Z,4.27
2018-11-14T17:51:30.574Z,7.47
2018-11-14T17:53:57.947Z,6.53
2018-11-14T17:56:25.151Z,5.10
2018-11-14T17:58:52.306Z,5.23
2018-11-14T18:01:19.481Z,5.20
2018-11-14T18:03:46.738Z,5.20
2018-11-14T18:06:13.930Z,5.30
2018-11-14T18:08:41.102Z,5.27
2018-11-14T18:11:08.291Z,5.37
2018-11-14T18:13:35.478Z,5.50
2018-11-14T18:16:02.659Z,5.50
2018-11-14T18:18:29.911Z,5.10
2018-11-14T18:21:03.423Z,4.93
2018-11-14T18:23:30.604Z,4.60
2018-11-14T18:25:57.758Z,5.30
2018-11-14T18:28:24.988Z,4.67
2018-11-14T18:30:52.189Z,5.00
2018-11-14T18:33:19.360Z,4.73
2018-11-14T18:35:46.611Z,4.87
2018-11-14T18:38:13.781Z,5.40
2018-11-14T18:40:40.953Z,4.80
2018-11-14T18:43:08.141Z,4.83
2018-11-14T18:45:36.012Z,4.83
2018-11-14T18:48:03.713Z,5.83
2018-11-14T18:50:30.960Z,5.40
2018-11-14T18:52:58.294Z,6.47
2018-11-14T18:55:26.887Z,6.20
2018-11-14T18:57:54.153Z,6.80
2018-11-14T19:00:22.580Z,6.13
2018-11-14T19:02:49.969Z,6.63
2018-11-14T19:05:17.805Z,5.37
2018-11-14T19:07:45.040Z,5.33
2018-11-14T19:10:13.784Z,5.77
2018-11-14T19:12:41.513Z,5.97
2018-11-14T19:15:09.709Z,5.50
2018-11-14T19:17:37.021Z,5.60
2018-11-14T19:20:04.550Z,5.70
2018-11-14T19:22:31.733Z,5.00
2018-11-14T19:24:58.967Z,5.50
2018-11-14T19:27:26.171Z,5.53
2018-11-14T19:29:53.403Z,6.00
2018-11-14T19:32:20.586Z,6.20
2018-11-14T19:34:47.919Z,6.10
2018-11-14T19:37:15.259Z,5.60
2018-11-14T19:39:42.500Z,6.90
2018-11-14T19:42:09.733Z,6.73
2018-11-14T19:44:37.027Z,6.83
2018-11-14T19:47:04.302Z,7.10
2018-11-14T19:49:31.790Z,6.83
2018-11-14T19:51:59.011Z,7.10
2018-11-14T19:54:26.282Z,8.20
2018-11-14T19:56:53.466Z,8.10
2018-11-14T19:59:20.702Z,7.93
2018-11-14T20:01:47.924Z,7.97
2018-11-14T20:04:15.268Z,7.80
2018-11-14T20:06:42.539Z,8.10
2018-11-14T20:09:10.530Z,8.80
2018-11-14T20:11:37.732Z,8.47
2018-11-14T20:14:05.369Z,8.30
2018-11-14T20:16:32.781Z,8.50
2018-11-14T20:19:00.044Z,8.63
2018-11-14T20:21:27.360Z,9.17
2018-11-14T20:23:54.731Z,8.90
2018-11-14T20:26:22.111Z,9.00
2018-11-14T20:28:49.286Z,9.07
2018-11-14T20:31:16.519Z,9.20
2018-11-14T20:33:43.744Z,9.77
2018-11-14T20:36:11.055Z,9.43
2018-11-14T20:38:38.312Z,10.80
2018-11-14T20:41:05.548Z,9.77
2018-11-14T20:43:32.838Z,11.20
2018-11-14T20:46:00.059Z,10.70
2018-11-14T20:48:27.335Z,11.23
2018-11-14T20:50:54.668Z,10.80
2018-11-14T20:53:21.903Z,10.13
2018-11-14T20:55:49.165Z,9.70
2018-11-14T20:58:16.386Z,10.27
2018-11-14T21:00:43.683Z,10.80
2018-11-14T21:03:10.934Z,10.30
2018-11-14T21:05:38.144Z,10.37
2018-11-14T21:08:05.591Z,12.20
2018-11-14T21:10:33.888Z,10.60
2018-11-14T21:13:01.931Z,11.77
2018-11-14T21:15:30.750Z,12.37
2018-11-14T21:17:59.029Z,11.80
2018-11-14T21:20:26.308Z,12.30
2018-11-14T21:22:53.586Z,12.50
2018-11-14T21:25:21.646Z,11.47
2018-11-14T21:27:49.285Z,12.40
2018-11-14T21:30:18.538Z,13.30
2018-11-14T21:32:45.816Z,13.30
2018-11-14T21:35:16.645Z,13.30
2018-11-14T21:37:44.799Z,13.20
2018-11-14T21:40:12.452Z,14.60
2018-11-14T21:42:39.780Z,13.70
2018-11-14T21:45:07.850Z,14.17
2018-11-14T21:48:38.502Z,13.53
2018-11-14T21:51:05.827Z,13.80
2018-11-14T21:53:33.056Z,15.10
2018-11-14T21:56:00.439Z,14.20
2018-11-14T21:58:27.627Z,15.37
2018-11-14T22:00:54.826Z,15.07
2018-11-14T22:03:22.007Z,15.60
2018-11-14T22:05:49.227Z,15.50
2018-11-14T22:08:16.402Z,15.50
2018-11-14T22:10:43.565Z,15.10
2018-11-14T22:13:10.727Z,15.80
2018-11-14T22:15:37.911Z,14.73
2018-11-14T22:18:05.111Z,15.53
2018-11-14T22:20:32.317Z,15.00
2018-11-14T22:22:59.505Z,15.30
2018-11-14T22:25:27.823Z,15.10
2018-11-14T22:27:55.024Z,15.40
2018-11-14T22:30:23.946Z,14.70
2018-11-14T22:32:51.128Z,14.77
2018-11-14T22:35:19.428Z,15.70
2018-11-14T22:37:46.510Z,13.83
2018-11-14T22:40:15.694Z,15.47
2018-11-14T22:42:43.220Z,15.90
2018-11-14T22:45:11.975Z,15.00
2018-11-14T22:47:39.739Z,14.80
2018-11-14T22:50:07.488Z,15.40
2018-11-14T22:52:34.647Z,16.63
2018-11-14T22:57:35.415Z,15.37
2018-11-14T23:00:02.630Z,14.40
2018-11-14T23:02:29.847Z,16.10
2018-11-14T23:04:57.062Z,14.57
2018-11-14T23:07:24.303Z,14.83
2018-11-14T23:09:58.023Z,15.20
2018-11-14T23:12:25.163Z,15.00
2018-11-14T23:14:52.376Z,15.67
2018-11-14T23:17:19.572Z,15.20
2018-11-14T23:19:46.791Z,15.37
2018-11-14T23:22:13.992Z,16.30
2018-11-14T23:24:41.190Z,15.17
2018-11-14T23:27:08.368Z,18.13
2018-11-14T23:29:35.982Z,15.80
2018-11-14T23:32:03.135Z,14.20
2018-11-14T23:34:30.294Z,14.70
2018-11-14T23:36:57.503Z,15.33
2018-11-14T23:39:24.724Z,16.10
2018-11-14T23:41:51.952Z,15.70
2018-11-14T23:44:19.099Z,15.70
2018-11-14T23:46:46.254Z,14.80
2018-11-14T23:49:13.468Z,14.70
2018-11-14T23:51:40.619Z,15.70
2018-11-14T23:54:07.802Z,14.40
2018-11-14T23:56:35.114Z,14.57
2018-11-14T23:59:02.314Z,14.90
